Terminal Aerodrome Forecast
Issued by NWS

Home | Current Version | Previous Version | Text Only | Print | Product List | Glossary On
Versions: 1 2 3 4 5 6 7 8 9 10 11 12 13 14 15 16 17 18 19 20 21
785
FTUS41 KBGM 280842 AAA
TAFRME
TAF AMD
KRME 280842Z 2809/2906 00000KT P6SM SCT050 BKN100
     FM281600 28006KT P6SM BKN200
     FM282100 32006KT P6SM SCT080 BKN200 PROB30 2822/2903 5SM -SHRA
      OVC060=

USA.gov is the U.S. government's official web portal to all federal, state and local government web resources and services.